createdAt,value
2022-09-15T00:01:42.564Z,20.31
2022-09-15T00:04:11.379Z,20.28
2022-09-15T00:06:40.103Z,20.26
2022-09-15T00:09:09.489Z,20.24
2022-09-15T00:11:39.451Z,20.21
2022-09-15T00:14:09.192Z,20.19
2022-09-15T00:16:38.467Z,20.16
2022-09-15T00:19:07.692Z,20.13
2022-09-15T00:21:40.266Z,20.09
2022-09-15T00:24:10.425Z,20.06
2022-09-15T00:26:39.280Z,20.04
2022-09-15T00:29:07.967Z,20.02
2022-09-15T00:31:36.758Z,20.00
2022-09-15T00:34:07.389Z,19.98
2022-09-15T00:36:36.180Z,19.97
2022-09-15T00:39:05.451Z,19.96
2022-09-15T00:41:34.474Z,19.96
2022-09-15T00:44:16.677Z,19.95
2022-09-15T00:47:09.348Z,19.94
2022-09-15T00:49:41.675Z,19.93
2022-09-15T00:52:16.329Z,19.92
2022-09-15T00:55:28.819Z,19.93
2022-09-15T00:58:04.762Z,19.92
2022-09-15T01:00:34.816Z,19.93
2022-09-15T01:03:04.929Z,19.94
2022-09-15T01:05:38.699Z,19.95
2022-09-15T01:08:16.952Z,19.96
2022-09-15T01:10:47.063Z,19.96
2022-09-15T01:13:16.062Z,19.97
2022-09-15T01:15:58.611Z,19.98
2022-09-15T01:18:33.638Z,19.98
2022-09-15T01:21:24.934Z,19.98
2022-09-15T01:24:20.339Z,19.98
2022-09-15T01:27:30.479Z,19.99
2022-09-15T01:30:35.950Z,19.98
2022-09-15T01:33:28.801Z,19.98
2022-09-15T01:36:05.778Z,19.96
2022-09-15T01:39:01.392Z,19.93
2022-09-15T01:41:50.766Z,19.90
2022-09-15T01:44:25.227Z,19.86
2022-09-15T01:46:58.498Z,19.83
2022-09-15T01:49:31.416Z,19.80
2022-09-15T01:52:00.775Z,19.75
2022-09-15T01:54:34.371Z,19.72
2022-09-15T01:57:03.467Z,19.68
2022-09-15T01:59:32.271Z,19.65
2022-09-15T02:02:12.886Z,19.62
2022-09-15T02:04:53.834Z,19.59
2022-09-15T02:07:51.974Z,19.55
2022-09-15T02:10:31.119Z,19.52
2022-09-15T02:13:27.035Z,19.49
2022-09-15T02:16:00.351Z,19.45
2022-09-15T02:18:42.209Z,19.44
2022-09-15T02:21:19.398Z,19.42
2022-09-15T02:23:55.490Z,19.41
2022-09-15T02:26:28.635Z,19.39
2022-09-15T02:29:00.803Z,19.37
2022-09-15T02:31:32.355Z,19.36
2022-09-15T02:34:07.216Z,19.35
2022-09-15T02:36:36.569Z,19.33
2022-09-15T02:39:10.281Z,19.32
2022-09-15T02:41:39.622Z,19.30
2022-09-15T02:44:10.072Z,19.29
2022-09-15T02:46:40.025Z,19.28
2022-09-15T02:49:08.855Z,19.27
2022-09-15T02:51:37.448Z,19.27
2022-09-15T02:54:06.533Z,19.26
2022-09-15T02:56:35.331Z,19.25
2022-09-15T02:59:04.115Z,19.24
2022-09-15T03:01:35.222Z,19.22
2022-09-15T03:04:05.376Z,19.21
2022-09-15T03:06:37.093Z,19.21
2022-09-15T03:09:08.318Z,19.19
2022-09-15T03:11:37.939Z,19.18
2022-09-15T03:14:08.499Z,19.17
2022-09-15T03:16:37.215Z,19.15
2022-09-15T03:19:06.714Z,19.14
2022-09-15T03:21:36.240Z,19.13
2022-09-15T03:24:05.112Z,19.12
2022-09-15T03:26:33.905Z,19.11
2022-09-15T03:29:02.632Z,19.10
2022-09-15T03:31:31.450Z,19.09
2022-09-15T03:34:00.268Z,19.07
2022-09-15T03:36:29.058Z,19.06
2022-09-15T03:38:59.282Z,19.05
2022-09-15T03:41:28.272Z,19.04
2022-09-15T03:43:57.082Z,19.03
2022-09-15T03:46:25.853Z,19.02
2022-09-15T03:48:54.338Z,19.01
2022-09-15T03:51:23.026Z,19.00
2022-09-15T03:53:51.805Z,19.00
2022-09-15T03:56:25.419Z,18.99
2022-09-15T03:58:54.814Z,18.98
2022-09-15T04:01:24.247Z,18.97
2022-09-15T04:03:53.187Z,18.97
2022-09-15T04:06:23.546Z,18.97
2022-09-15T04:08:53.017Z,18.97
2022-09-15T04:11:23.058Z,18.98
2022-09-15T04:13:53.487Z,19.00
2022-09-15T04:16:24.832Z,19.02
2022-09-15T04:18:55.645Z,19.04
2022-09-15T04:21:27.382Z,19.07
2022-09-15T04:23:56.222Z,19.10
2022-09-15T04:26:28.770Z,19.15
2022-09-15T04:29:03.031Z,19.20
2022-09-15T04:31:34.051Z,19.24
2022-09-15T04:34:03.074Z,19.27
2022-09-15T04:36:32.262Z,19.31
2022-09-15T04:39:01.037Z,19.35
2022-09-15T04:41:29.836Z,19.39
2022-09-15T04:43:58.924Z,19.43
2022-09-15T04:46:27.646Z,19.47
2022-09-15T04:48:57.321Z,19.52
2022-09-15T04:51:27.497Z,19.56
2022-09-15T04:53:56.329Z,19.58
2022-09-15T04:56:26.804Z,19.58
2022-09-15T04:59:03.813Z,19.56
2022-09-15T05:01:35.601Z,19.55
2022-09-15T05:04:05.409Z,19.53
2022-09-15T05:06:35.535Z,19.52
2022-09-15T05:09:10.053Z,19.54
2022-09-15T05:11:39.267Z,19.59
2022-09-15T05:14:09.886Z,19.64
2022-09-15T05:16:40.453Z,19.70
2022-09-15T05:19:11.361Z,19.77
2022-09-15T05:21:40.148Z,19.84
2022-09-15T05:24:09.856Z,19.93
2022-09-15T05:26:38.338Z,20.01
2022-09-15T05:29:07.026Z,20.14
2022-09-15T05:31:35.631Z,20.23
2022-09-15T05:34:06.338Z,20.27
2022-09-15T05:36:34.933Z,20.28
2022-09-15T05:39:04.020Z,20.26
2022-09-15T05:41:33.426Z,20.26
2022-09-15T05:44:02.901Z,20.27
2022-09-15T05:46:31.788Z,20.28
2022-09-15T05:49:00.412Z,20.36
2022-09-15T05:51:30.613Z,20.49
2022-09-15T05:53:59.624Z,20.59
2022-09-15T05:56:28.315Z,20.67
2022-09-15T05:58:57.681Z,20.73
2022-09-15T06:01:30.558Z,20.78
2022-09-15T06:03:59.796Z,20.88
2022-09-15T06:06:31.157Z,20.97
2022-09-15T06:09:02.085Z,21.04
2022-09-15T06:11:34.118Z,21.08
2022-09-15T06:14:04.339Z,21.13
2022-09-15T06:16:35.179Z,21.16
2022-09-15T06:19:04.503Z,21.20
2022-09-15T06:21:33.812Z,21.24
2022-09-15T06:24:06.270Z,21.27
2022-09-15T06:26:35.431Z,21.35
2022-09-15T06:29:05.756Z,21.43
2022-09-15T06:31:36.210Z,21.49
2022-09-15T06:34:05.642Z,21.55
2022-09-15T06:36:36.889Z,21.65
2022-09-15T06:39:05.777Z,21.75
2022-09-15T06:41:58.403Z,21.82
2022-09-15T06:44:23.838Z,21.92
2022-09-15T06:46:52.628Z,22.01
2022-09-15T06:49:22.233Z,22.07
2022-09-15T06:51:50.819Z,22.10
2022-09-15T06:54:19.712Z,22.15
2022-09-15T06:56:48.500Z,22.22
2022-09-15T06:59:17.696Z,22.28
2022-09-15T07:01:55.988Z,22.33
2022-09-15T07:04:24.804Z,22.43
2022-09-15T07:06:53.589Z,22.50
2022-09-15T07:09:22.480Z,22.59
2022-09-15T07:11:51.165Z,22.66
2022-09-15T07:14:19.869Z,22.74
2022-09-15T07:16:48.515Z,22.82
2022-09-15T07:19:17.253Z,22.88
2022-09-15T07:21:45.776Z,22.97
2022-09-15T07:24:14.907Z,23.07
2022-09-15T07:26:43.802Z,23.16
2022-09-15T07:29:12.588Z,23.26
2022-09-15T07:31:41.258Z,23.39
2022-09-15T07:34:10.268Z,23.51
2022-09-15T07:36:38.952Z,23.62
2022-09-15T07:39:07.749Z,23.73
2022-09-15T07:41:36.739Z,23.86
2022-09-15T07:44:08.391Z,23.98
2022-09-15T07:46:37.082Z,24.08
2022-09-15T07:49:07.097Z,24.20
2022-09-15T07:51:35.886Z,24.31
2022-09-15T07:54:04.676Z,24.45
2022-09-15T07:56:33.679Z,24.60
2022-09-15T07:59:02.398Z,24.72
2022-09-15T08:01:31.234Z,24.79
2022-09-15T08:03:59.930Z,24.85
2022-09-15T08:06:29.028Z,24.91
2022-09-15T08:09:00.633Z,24.99
2022-09-15T08:11:30.296Z,25.07
2022-09-15T08:14:02.649Z,25.17
2022-09-15T08:16:32.240Z,25.27
2022-09-15T08:19:02.394Z,25.40
2022-09-15T08:21:31.143Z,25.51
2022-09-15T08:24:01.604Z,25.58
2022-09-15T08:26:31.184Z,25.71
2022-09-15T08:29:01.216Z,25.87
2022-09-15T08:31:30.219Z,25.98
2022-09-15T08:33:59.122Z,26.07
2022-09-15T08:36:28.423Z,26.20
2022-09-15T08:38:57.220Z,26.34
2022-09-15T08:41:44.742Z,26.46
2022-09-15T08:44:34.933Z,26.58
2022-09-15T08:47:19.902Z,26.73
2022-09-15T08:49:57.598Z,26.89
2022-09-15T08:52:33.569Z,27.02
2022-09-15T08:55:07.536Z,27.13
2022-09-15T08:57:36.561Z,27.26
2022-09-15T09:00:07.253Z,27.39
2022-09-15T09:02:41.471Z,27.54
2022-09-15T09:05:49.519Z,27.64
2022-09-15T09:08:52.002Z,27.76
2022-09-15T09:11:40.860Z,27.94
2022-09-15T09:14:43.651Z,28.08
2022-09-15T09:17:56.889Z,28.19
2022-09-15T09:20:39.902Z,28.24
2022-09-15T09:23:14.958Z,28.27
2022-09-15T09:25:45.024Z,28.34
2022-09-15T09:28:32.310Z,28.41
2022-09-15T09:31:08.221Z,28.43
2022-09-15T09:33:47.472Z,28.45
2022-09-15T09:36:22.296Z,28.44
2022-09-15T09:38:51.598Z,28.44
2022-09-15T09:41:25.607Z,28.45
2022-09-15T09:43:56.410Z,28.43
2022-09-15T09:46:25.079Z,28.41
2022-09-15T09:49:01.464Z,28.41
2022-09-15T09:51:35.320Z,28.39
2022-09-15T09:54:12.849Z,28.36
2022-09-15T09:56:42.305Z,28.34
2022-09-15T09:59:40.278Z,28.34
2022-09-15T10:02:12.044Z,28.36
2022-09-15T10:04:43.466Z,28.41
2022-09-15T10:07:14.796Z,28.46
2022-09-15T10:09:53.217Z,28.49
2022-09-15T10:12:42.088Z,28.52
2022-09-15T10:15:24.314Z,28.55
2022-09-15T10:17:54.638Z,28.61
2022-09-15T10:20:36.022Z,28.66
2022-09-15T10:23:25.805Z,28.71
2022-09-15T10:26:00.098Z,28.75
2022-09-15T10:28:29.829Z,28.78
2022-09-15T10:31:03.434Z,28.79
2022-09-15T10:33:37.920Z,28.81
2022-09-15T10:36:11.303Z,28.85
2022-09-15T10:38:49.230Z,28.88
2022-09-15T10:41:28.801Z,28.89
2022-09-15T10:44:23.189Z,28.89
2022-09-15T10:47:22.806Z,28.90
2022-09-15T10:50:21.899Z,28.95
2022-09-15T10:53:07.179Z,29.04
2022-09-15T10:55:51.558Z,29.15
2022-09-15T10:58:31.331Z,29.30
2022-09-15T11:01:28.319Z,29.50
2022-09-15T11:04:28.461Z,29.63
2022-09-15T11:07:00.118Z,29.74
2022-09-15T11:09:38.424Z,29.86
2022-09-15T11:12:32.605Z,29.94
2022-09-15T11:15:15.632Z,30.05
2022-09-15T11:17:53.323Z,30.17
2022-09-15T11:20:31.226Z,30.25
2022-09-15T11:23:02.985Z,30.34
2022-09-15T11:25:48.056Z,30.42
2022-09-15T11:28:39.072Z,30.52
2022-09-15T11:31:21.703Z,30.58
2022-09-15T11:33:56.303Z,30.61
2022-09-15T11:36:44.080Z,30.70
2022-09-15T11:39:30.193Z,30.79
2022-09-15T11:42:02.301Z,30.83
2022-09-15T11:44:36.726Z,30.84
2022-09-15T11:47:05.307Z,30.77
2022-09-15T11:49:55.810Z,30.68
2022-09-15T11:52:36.505Z,30.62
2022-09-15T11:55:23.452Z,30.55
2022-09-15T11:57:55.041Z,30.53
2022-09-15T12:00:23.832Z,30.54
2022-09-15T12:03:06.099Z,30.57
2022-09-15T12:05:45.706Z,30.60
2022-09-15T12:08:41.297Z,30.61
2022-09-15T12:11:19.317Z,30.59
2022-09-15T12:13:48.711Z,30.56
2022-09-15T12:16:19.059Z,30.50
2022-09-15T12:18:53.141Z,30.44
2022-09-15T12:21:54.596Z,30.41
2022-09-15T12:24:34.222Z,30.38
2022-09-15T12:27:03.235Z,30.34
2022-09-15T12:29:42.016Z,30.33
2022-09-15T12:32:25.490Z,30.31
2022-09-15T12:35:30.632Z,30.29
2022-09-15T12:38:01.163Z,30.26
2022-09-15T12:40:35.335Z,30.26
2022-09-15T12:43:19.118Z,30.26
2022-09-15T12:46:01.403Z,30.27
2022-09-15T12:48:36.734Z,30.29
2022-09-15T12:51:10.783Z,30.33
2022-09-15T12:54:04.867Z,30.35
2022-09-15T12:56:35.281Z,30.35
2022-09-15T12:59:14.934Z,30.32
2022-09-15T13:01:50.853Z,30.30
2022-09-15T13:04:43.977Z,30.26
2022-09-15T13:07:15.709Z,30.22
2022-09-15T13:10:13.894Z,30.16
2022-09-15T13:12:52.998Z,30.09
2022-09-15T13:15:25.735Z,30.02
2022-09-15T13:17:55.922Z,29.95
2022-09-15T13:20:31.059Z,29.84
2022-09-15T13:23:02.209Z,29.76
2022-09-15T13:25:31.632Z,29.70
2022-09-15T13:28:02.828Z,29.66
2022-09-15T13:30:40.799Z,29.60
2022-09-15T13:39:43.795Z,29.53
2022-09-15T13:42:28.767Z,29.54
2022-09-15T13:45:29.599Z,29.54
2022-09-15T13:48:15.289Z,29.53
2022-09-15T13:50:58.099Z,29.51
2022-09-15T13:53:43.156Z,29.47
2022-09-15T13:56:24.637Z,29.45
2022-09-15T13:59:00.999Z,29.46
2022-09-15T14:01:39.092Z,29.46
2022-09-15T14:04:13.857Z,29.46
2022-09-15T14:06:46.336Z,29.46
2022-09-15T14:09:27.530Z,29.49
2022-09-15T14:11:59.813Z,29.50
2022-09-15T14:14:28.468Z,29.50
2022-09-15T14:16:57.640Z,29.50
2022-09-15T14:19:37.633Z,29.50
2022-09-15T14:22:18.901Z,29.47
2022-09-15T14:24:48.460Z,29.43
2022-09-15T14:27:23.820Z,29.41
2022-09-15T14:29:58.025Z,29.39
2022-09-15T14:32:29.097Z,29.36
2022-09-15T14:35:01.494Z,29.33
2022-09-15T14:37:35.207Z,29.31
2022-09-15T14:40:19.710Z,29.27
2022-09-15T14:42:48.437Z,29.22
2022-09-15T14:48:16.496Z,29.10
2022-09-15T14:50:54.528Z,29.05
2022-09-15T14:53:25.982Z,28.99
2022-09-15T14:56:08.924Z,28.93
2022-09-15T14:58:57.660Z,28.87
2022-09-15T15:01:35.359Z,28.80
2022-09-15T15:04:41.731Z,28.73
2022-09-15T15:07:25.978Z,28.62
2022-09-15T15:10:04.710Z,28.53
2022-09-15T15:12:44.138Z,28.47
2022-09-15T15:15:15.506Z,28.40
2022-09-15T15:17:54.948Z,28.35
2022-09-15T15:20:27.585Z,28.29
2022-09-15T15:23:13.808Z,28.22
2022-09-15T15:25:43.312Z,28.16
2022-09-15T15:28:35.141Z,28.12
2022-09-15T15:31:13.765Z,28.06
2022-09-15T15:33:53.728Z,28.01
2022-09-15T15:36:24.509Z,27.95
2022-09-15T15:38:59.559Z,27.90
2022-09-15T15:41:31.235Z,27.84
2022-09-15T15:44:09.960Z,27.79
2022-09-15T15:46:54.424Z,27.74
2022-09-15T15:49:31.876Z,27.69
2022-09-15T15:52:02.107Z,27.64
2022-09-15T15:54:34.814Z,27.60
2022-09-15T15:57:28.348Z,27.55
2022-09-15T15:59:58.880Z,27.49
2022-09-15T16:02:28.009Z,27.46
2022-09-15T16:04:56.698Z,27.41
2022-09-15T16:07:31.074Z,27.36
2022-09-15T16:10:02.875Z,27.29
2022-09-15T16:12:34.709Z,27.23
2022-09-15T16:15:12.085Z,27.18
2022-09-15T16:17:45.891Z,27.13
2022-09-15T16:20:17.181Z,27.10
2022-09-15T16:22:46.072Z,27.07
2022-09-15T16:25:42.918Z,27.03
2022-09-15T16:28:11.762Z,26.99
2022-09-15T16:30:40.503Z,26.96
2022-09-15T16:33:14.390Z,26.92
2022-09-15T16:35:51.590Z,26.87
2022-09-15T16:38:21.885Z,26.81
2022-09-15T16:40:51.523Z,26.76
2022-09-15T16:43:22.062Z,26.70
2022-09-15T16:45:52.238Z,26.63
2022-09-15T16:48:21.479Z,26.56
2022-09-15T16:51:16.843Z,26.50
2022-09-15T16:53:40.558Z,26.45
2022-09-15T16:56:13.954Z,26.45
2022-09-15T16:58:44.280Z,26.43
2022-09-15T17:01:22.504Z,26.39
2022-09-15T17:03:51.181Z,26.36
2022-09-15T17:06:21.392Z,26.34
2022-09-15T17:08:50.087Z,26.32
2022-09-15T17:11:21.082Z,26.32
2022-09-15T17:13:49.918Z,26.30
2022-09-15T17:16:20.340Z,26.30
2022-09-15T17:18:49.336Z,26.29
2022-09-15T17:21:19.435Z,26.24
2022-09-15T17:23:50.399Z,26.22
2022-09-15T17:26:24.666Z,26.21
2022-09-15T17:28:56.676Z,26.19
2022-09-15T17:31:25.653Z,26.18
2022-09-15T17:33:54.669Z,26.16
2022-09-15T17:36:23.659Z,26.15
2022-09-15T17:38:52.448Z,26.13
2022-09-15T17:41:23.150Z,26.12
2022-09-15T17:43:53.336Z,26.10
2022-09-15T17:46:22.126Z,26.07
2022-09-15T17:48:51.094Z,26.04
2022-09-15T17:51:19.878Z,26.01
2022-09-15T17:53:48.459Z,25.97
2022-09-15T17:56:17.247Z,25.94
2022-09-15T17:58:46.344Z,25.91
2022-09-15T18:01:16.097Z,25.89
2022-09-15T18:03:45.462Z,25.86
2022-09-15T18:06:14.759Z,25.83
2022-09-15T18:08:43.616Z,25.82
2022-09-15T18:11:15.635Z,25.80
2022-09-15T18:13:44.275Z,25.78
2022-09-15T18:16:14.550Z,25.74
2022-09-15T18:18:43.511Z,25.69
2022-09-15T18:21:25.414Z,25.65
2022-09-15T18:23:54.105Z,25.62
2022-09-15T18:26:26.289Z,25.59
2022-09-15T18:28:56.394Z,25.54
2022-09-15T18:31:25.562Z,25.49
2022-09-15T18:33:54.767Z,25.45
2022-09-15T18:36:23.369Z,25.42
2022-09-15T18:38:52.079Z,25.40
2022-09-15T18:41:21.256Z,25.36
2022-09-15T18:43:49.885Z,25.32
2022-09-15T18:46:18.809Z,25.29
2022-09-15T18:48:48.339Z,25.27
2022-09-15T18:51:24.143Z,25.25
2022-09-15T18:53:58.005Z,25.23
2022-09-15T18:56:27.099Z,25.21
2022-09-15T18:58:56.501Z,25.18
2022-09-15T19:01:25.604Z,25.15
2022-09-15T19:03:54.656Z,25.12
2022-09-15T19:06:23.379Z,25.12
2022-09-15T19:08:52.452Z,25.11
2022-09-15T19:11:21.465Z,25.11
2022-09-15T19:13:53.463Z,25.11
2022-09-15T19:16:22.977Z,25.09
2022-09-15T19:18:57.086Z,25.08
2022-09-15T19:21:27.454Z,25.05
2022-09-15T19:23:58.291Z,25.00
2022-09-15T19:26:29.763Z,24.93
2022-09-15T19:28:58.861Z,24.92
2022-09-15T19:31:27.912Z,24.91
2022-09-15T19:33:57.667Z,24.90
2022-09-15T19:36:28.730Z,24.89
2022-09-15T19:39:00.545Z,24.87
2022-09-15T19:41:31.517Z,24.85
2022-09-15T19:44:02.847Z,24.83
2022-09-15T19:46:31.963Z,24.83
2022-09-15T19:49:03.286Z,24.82
2022-09-15T19:51:31.890Z,24.79
2022-09-15T19:54:01.088Z,24.78
2022-09-15T19:56:31.389Z,24.77
2022-09-15T19:59:00.308Z,24.77
2022-09-15T20:01:31.285Z,24.75
2022-09-15T20:04:02.195Z,24.73
2022-09-15T20:06:32.766Z,24.70
2022-09-15T20:09:02.511Z,24.68
2022-09-15T20:11:31.945Z,24.66
2022-09-15T20:14:01.851Z,24.65
2022-09-15T20:16:30.845Z,24.62
2022-09-15T20:18:59.631Z,24.59
2022-09-15T20:21:49.253Z,24.57
2022-09-15T20:24:20.047Z,24.55
2022-09-15T20:26:48.931Z,24.53
2022-09-15T20:29:18.450Z,24.51
2022-09-15T20:31:47.965Z,24.49
2022-09-15T20:34:19.070Z,24.46
2022-09-15T20:36:47.675Z,24.43
2022-09-15T20:39:19.229Z,24.41
2022-09-15T20:41:47.972Z,24.38
2022-09-15T20:44:17.115Z,24.34
2022-09-15T20:46:45.603Z,24.30
2022-09-15T20:49:16.228Z,24.28
2022-09-15T20:51:45.630Z,24.27
2022-09-15T20:54:15.032Z,24.25
2022-09-15T20:56:43.722Z,24.22
2022-09-15T20:59:14.665Z,24.19
2022-09-15T21:01:43.981Z,24.16
2022-09-15T21:04:12.856Z,24.13
2022-09-15T21:06:41.640Z,24.11
2022-09-15T21:09:10.432Z,24.08
2022-09-15T21:11:40.042Z,24.07
2022-09-15T21:14:10.985Z,24.08
2022-09-15T21:16:39.825Z,24.09
2022-09-15T21:19:12.919Z,24.10
2022-09-15T21:21:41.540Z,24.13
2022-09-15T21:24:10.129Z,24.16
2022-09-15T21:27:01.872Z,24.18
2022-09-15T21:29:31.670Z,24.20
2022-09-15T21:32:00.418Z,24.22
2022-09-15T21:34:29.398Z,24.23
2022-09-15T21:36:58.340Z,24.24
2022-09-15T21:39:27.036Z,24.25
2022-09-15T21:41:55.813Z,24.25
2022-09-15T21:44:24.399Z,24.25
2022-09-15T21:46:53.393Z,24.25
2022-09-15T21:49:22.284Z,24.24
2022-09-15T21:51:51.285Z,24.23
2022-09-15T21:54:19.966Z,24.22
2022-09-15T21:56:48.648Z,24.21
2022-09-15T21:59:18.624Z,24.21
2022-09-15T22:01:47.484Z,24.19
2022-09-15T22:04:16.253Z,24.17
2022-09-15T22:06:47.286Z,24.16
2022-09-15T22:09:18.821Z,24.14
2022-09-15T22:11:48.345Z,24.12
2022-09-15T22:14:18.570Z,24.11
2022-09-15T22:16:47.521Z,24.10
2022-09-15T22:19:16.662Z,24.08
2022-09-15T22:21:45.839Z,24.07
2022-09-15T22:24:15.157Z,24.07
2022-09-15T22:26:44.282Z,24.04
2022-09-15T22:29:12.942Z,24.02
2022-09-15T22:31:42.374Z,24.00
2022-09-15T22:34:11.239Z,23.99
2022-09-15T22:36:40.029Z,23.97
2022-09-15T22:39:09.048Z,23.92
2022-09-15T22:41:39.538Z,23.88
2022-09-15T22:44:18.380Z,23.85
2022-09-15T22:46:47.367Z,23.84
2022-09-15T22:49:16.177Z,23.83
2022-09-15T22:51:46.483Z,23.81
2022-09-15T22:54:15.473Z,23.80
2022-09-15T22:56:43.961Z,23.77
2022-09-15T22:59:14.076Z,23.75
2022-09-15T23:01:43.093Z,23.73
2022-09-15T23:04:11.657Z,23.71
2022-09-15T23:06:40.442Z,23.68
2022-09-15T23:09:10.819Z,23.67
2022-09-15T23:11:40.684Z,23.64
2022-09-15T23:14:18.249Z,23.62
2022-09-15T23:16:47.076Z,23.58
2022-09-15T23:19:16.187Z,23.54
2022-09-15T23:21:45.778Z,23.51
2022-09-15T23:24:15.431Z,23.51
2022-09-15T23:26:44.073Z,23.49
2022-09-15T23:29:12.763Z,23.47
2022-09-15T23:31:41.870Z,23.42
2022-09-15T23:34:10.639Z,23.35
2022-09-15T23:36:39.227Z,23.31
2022-09-15T23:39:07.840Z,23.27
2022-09-15T23:41:37.057Z,23.25
2022-09-15T23:44:06.002Z,23.24
2022-09-15T23:46:35.019Z,23.23
2022-09-15T23:49:03.680Z,23.23
2022-09-15T23:51:32.264Z,23.23
2022-09-15T23:54:02.493Z,23.22
2022-09-15T23:56:32.404Z,23.20
2022-09-15T23:59:01.296Z,23.19
